Dades meteomassalio
Diari Summary for Noviembre 12, 2017 Units:  English    Metric   Both
« Previous Day
Next Day »
Diari Semanal Mensual Anual Personalitzat
  Maxima: Minima: Mijana:
Temperatura: TemperatureC °F 10.6 °F 14 °F
Rosada: DewpointC °F 4.7 °F 6.7 °F
Humitat: Humidity % 49 % 62 %
Velocitat del vent: WindSpeedKMH mph 11.1 mph 33.5 mph
Racha vent: WindSpeedGustKMH mph - -
Vent:- - NW
Pressio: PressurehPa in 1016.8 in -
Pluja: 0.0 in    
Historical Graphs
 
 
Tabular Data for Noviembre 12, 2017
Time Temperature Dew Point Pressure Wind Wind Speed Wind Gust Humidity Rainfall Rate (Hourly) solar Conditions
TemperatureC °F DewpointC °F PressurehPa in Calm     Humidity % HourlyPrecipMM in SolarRadiationWatts/m^2 W/m2 Conditions
00:02 11.1 °F 4.8 °F 1026.3 in WNW 20.4 mph 20.4 mph 65 % 0.0 in 0.0 W/m2 CLR
00:07 11.1 °F 4.8 °F 1026.3 in NW 20.9 mph 20.9 mph 65 % 0.0 in 0.0 W/m2 CLR
00:12 11.1 °F 4.8 °F 1026.3 in NW 25.9 mph 25.9 mph 65 % 0.0 in 0.0 W/m2 CLR
00:17 11.7 °F 5.3 °F 1026.3 in WNW 25.9 mph 25.9 mph 65 % 0.0 in 0.0 W/m2 CLR
00:22 11.7 °F 5.3 °F 1026.3 in WNW 18.5 mph 18.5 mph 65 % 0.0 in 0.0 W/m2 CLR
00:27 11.7 °F 5.3 °F 1026.3 in WNW 25.9 mph 25.9 mph 65 % 0.0 in 0.0 W/m2 CLR
00:32 11.7 °F 5.3 °F 1026.3 in West 24.1 mph 24.1 mph 65 % 0.0 in 0.0 W/m2 CLR
00:37 11.7 °F 5.5 °F 1026.3 in WNW 18.5 mph 18.5 mph 66 % 0.0 in 0.0 W/m2 CLR
00:42 11.7 °F 5.5 °F 1026.0 in WNW 18.5 mph 18.5 mph 66 % 0.0 in 0.0 W/m2 CLR
00:47 11.7 °F 5.5 °F 1026.0 in WNW 16.1 mph 16.1 mph 66 % 0.0 in 0.0 W/m2 CLR
00:52 11.1 °F 5.0 °F 1026.0 in NW 27.8 mph 27.8 mph 66 % 0.0 in 0.0 W/m2 CLR
00:57 11.1 °F 5.0 °F 1026.0 in NW 24.1 mph 24.1 mph 66 % 0.0 in 0.0 W/m2 CLR
01:02 11.1 °F 5.0 °F 1025.6 in NW 24.1 mph 24.1 mph 66 % 0.0 in 0.0 W/m2 CLR
01:07 11.7 °F 5.5 °F 1025.6 in NW 33.3 mph 33.3 mph 66 % 0.0 in 0.0 W/m2 CLR
01:12 11.7 °F 5.5 °F 1025.6 in WNW 29.6 mph 29.6 mph 66 % 0.0 in 0.0 W/m2 CLR
01:17 11.7 °F 5.7 °F 1025.6 in NNW 19.3 mph 19.3 mph 67 % 0.0 in 0.0 W/m2 CLR
01:22 12.2 °F 6.3 °F 1025.6 in WNW 18.5 mph 18.5 mph 67 % 0.0 in 0.0 W/m2 CLR
01:27 12.2 °F 6.3 °F 1025.6 in WNW 18.5 mph 18.5 mph 67 % 0.0 in 0.0 W/m2 CLR
01:32 11.7 °F 5.7 °F 1025.3 in NW 18.5 mph 18.5 mph 67 % 0.0 in 0.0 W/m2 CLR
01:37 11.7 °F 5.7 °F 1025.3 in WNW 25.9 mph 25.9 mph 67 % 0.0 in 0.0 W/m2 CLR
01:42 11.7 °F 5.7 °F 1025.3 in WNW 18.5 mph 18.5 mph 67 % 0.0 in 0.0 W/m2 CLR
01:47 11.7 °F 5.7 °F 1025.3 in WNW 22.2 mph 22.2 mph 67 % 0.0 in 0.0 W/m2 CLR
01:52 11.7 °F 5.7 °F 1024.9 in NW 22.2 mph 22.2 mph 67 % 0.0 in 0.0 W/m2 CLR
01:57 11.7 °F 5.7 °F 1024.9 in WNW 22.2 mph 22.2 mph 67 % 0.0 in 0.0 W/m2 CLR
02:02 11.1 °F 5.2 °F 1024.9 in WNW 19.3 mph 19.3 mph 67 % 0.0 in 0.0 W/m2 CLR
02:07 11.1 °F 5.2 °F 1024.9 in WNW 18.5 mph 18.5 mph 67 % 0.0 in 0.0 W/m2 CLR
02:12 11.1 °F 5.2 °F 1024.9 in West 20.9 mph 20.9 mph 67 % 0.0 in 0.0 W/m2 CLR
02:17 11.1 °F 5.2 °F 1024.9 in West 16.7 mph 16.7 mph 67 % 0.0 in 0.0 W/m2 CLR
02:22 11.1 °F 5.4 °F 1024.9 in WNW 16.7 mph 16.7 mph 68 % 0.0 in 0.0 W/m2 CLR
02:27 10.6 °F 4.9 °F 1024.9 in West 11.1 mph 11.1 mph 68 % 0.0 in 0.0 W/m2 CLR
02:32 10.6 °F 5.1 °F 1024.9 in WSW 11.1 mph 11.1 mph 69 % 0.0 in 0.0 W/m2 CLR
02:37 11.1 °F 5.6 °F 1024.9 in West 16.7 mph 16.7 mph 69 % 0.0 in 0.0 W/m2 CLR
02:42 11.1 °F 5.8 °F 1024.9 in West 18.5 mph 18.5 mph 70 % 0.0 in 0.0 W/m2 CLR
02:47 11.1 °F 5.8 °F 1024.6 in West 18.5 mph 18.5 mph 70 % 0.0 in 0.0 W/m2 CLR
02:52 10.6 °F 5.3 °F 1024.6 in West 16.7 mph 16.7 mph 70 % 0.0 in 0.0 W/m2 CLR
02:57 10.6 °F 5.3 °F 1024.6 in West 18.5 mph 18.5 mph 70 % 0.0 in 0.0 W/m2 CLR
03:02 10.6 °F 5.1 °F 1024.6 in NW 18.5 mph 18.5 mph 69 % 0.0 in 0.0 W/m2 CLR
03:07 10.6 °F 5.1 °F 1024.6 in WNW 13.0 mph 13.0 mph 69 % 0.0 in 0.0 W/m2 CLR
03:12 11.1 °F 5.4 °F 1024.6 in WNW 20.4 mph 20.4 mph 68 % 0.0 in 0.0 W/m2 CLR
03:17 11.7 °F 5.7 °F 1024.6 in WNW 25.9 mph 25.9 mph 67 % 0.0 in 0.0 W/m2 CLR
03:22 11.7 °F 5.5 °F 1024.6 in WNW 25.9 mph 25.9 mph 66 % 0.0 in 0.0 W/m2 CLR
03:27 12.2 °F 6.1 °F 1024.6 in West 22.5 mph 22.5 mph 66 % 0.0 in 0.0 W/m2 CLR
03:32 12.2 °F 6.1 °F 1024.3 in West 22.2 mph 22.2 mph 66 % 0.0 in 0.0 W/m2 CLR
03:37 12.2 °F 6.1 °F 1024.3 in West 22.2 mph 22.2 mph 66 % 0.0 in 0.0 W/m2 CLR
03:42 12.2 °F 6.1 °F 1024.3 in West 24.1 mph 24.1 mph 66 % 0.0 in 0.0 W/m2 CLR
03:47 12.2 °F 6.1 °F 1024.3 in West 27.8 mph 27.8 mph 66 % 0.0 in 0.0 W/m2 CLR
03:48 12.2 °F 6.1 °F 1024.3 in WNW 27.8 mph 27.8 mph 66 % 0.0 in 0.0 W/m2 CLR
03:53 12.2 °F 6.1 °F 1024.3 in WNW 18.5 mph 18.5 mph 66 % 0.0 in 0.0 W/m2 CLR
03:58 12.2 °F 6.3 °F 1024.3 in WNW 24.1 mph 24.1 mph 67 % 0.0 in 0.0 W/m2 CLR
04:03 12.2 °F 6.1 °F 1023.9 in NNW 27.8 mph 27.8 mph 66 % 0.0 in 0.0 W/m2 CLR
04:08 12.2 °F 6.3 °F 1023.9 in NW 31.5 mph 31.5 mph 67 % 0.0 in 0.0 W/m2 CLR
04:13 12.2 °F 6.1 °F 1023.9 in NNW 40.7 mph 40.7 mph 66 % 0.0 in 0.0 W/m2 CLR
04:18 12.2 °F 6.1 °F 1023.6 in NNW 29.6 mph 29.6 mph 66 % 0.0 in 0.0 W/m2 CLR
04:21 12.2 °F 6.1 °F 1023.6 in NNW 38.9 mph 38.9 mph 66 % 0.0 in 0.0 W/m2 CLR
04:24 12.2 °F 6.1 °F 1023.6 in NW 44.4 mph 44.4 mph 66 % 0.0 in 0.0 W/m2 CLR
04:25 12.2 °F 6.1 °F 1023.6 in NW 44.4 mph 44.4 mph 66 % 0.0 in 0.0 W/m2 CLR
04:30 12.2 °F 6.1 °F 1023.6 in NNW 37.0 mph 37.0 mph 66 % 0.0 in 0.0 W/m2 CLR
04:31 12.2 °F 6.1 °F 1023.6 in NW 37.0 mph 37.0 mph 66 % 0.0 in 0.0 W/m2 CLR
04:36 12.2 °F 6.1 °F 1023.6 in NNW 33.3 mph 33.3 mph 66 % 0.0 in 0.0 W/m2 CLR
04:41 12.8 °F 6.3 °F 1023.9 in NW 24.1 mph 24.1 mph 65 % 0.0 in 0.0 W/m2 CLR
04:46 12.8 °F 6.3 °F 1023.9 in NW 19.3 mph 19.3 mph 65 % 0.0 in 0.0 W/m2 CLR
04:51 12.8 °F 6.3 °F 1023.9 in WNW 24.1 mph 24.1 mph 65 % 0.0 in 0.0 W/m2 CLR
04:56 12.8 °F 6.3 °F 1023.9 in WNW 18.5 mph 18.5 mph 65 % 0.0 in 0.0 W/m2 CLR
05:01 12.8 °F 6.3 °F 1024.3 in NW 24.1 mph 24.1 mph 65 % 0.0 in 0.0 W/m2 CLR
05:06 12.8 °F 6.3 °F 1023.9 in WNW 14.5 mph 14.5 mph 65 % 0.0 in 0.0 W/m2 CLR
05:11 12.8 °F 6.3 °F 1023.9 in WNW 20.4 mph 20.4 mph 65 % 0.0 in 0.0 W/m2 CLR
05:16 12.8 °F 6.3 °F 1023.9 in WNW 29.6 mph 29.6 mph 65 % 0.0 in 0.0 W/m2 CLR
05:21 12.8 °F 6.3 °F 1023.9 in NW 27.8 mph 27.8 mph 65 % 0.0 in 0.0 W/m2 CLR
05:26 12.8 °F 6.3 °F 1023.9 in NNW 31.5 mph 31.5 mph 65 % 0.0 in 0.0 W/m2 CLR
05:31 12.8 °F 6.3 °F 1023.9 in NW 33.3 mph 33.3 mph 65 % 0.0 in 0.0 W/m2 CLR
05:36 12.2 °F 5.8 °F 1023.9 in NW 31.5 mph 31.5 mph 65 % 0.0 in 0.0 W/m2 CLR
05:41 12.2 °F 5.8 °F 1023.9 in WNW 35.2 mph 35.2 mph 65 % 0.0 in 0.0 W/m2 CLR
05:46 12.2 °F 5.8 °F 1023.9 in NW 31.5 mph 31.5 mph 65 % 0.0 in 0.0 W/m2 CLR
05:51 12.2 °F 5.8 °F 1023.9 in NNW 33.3 mph 33.3 mph 65 % 0.0 in 0.0 W/m2 CLR
05:56 12.2 °F 5.8 °F 1023.9 in NNW 42.6 mph 42.6 mph 65 % 0.0 in 0.0 W/m2 CLR
06:01 12.2 °F 5.8 °F 1023.9 in NW 33.8 mph 33.8 mph 65 % 0.0 in 0.0 W/m2 CLR
06:06 12.2 °F 5.8 °F 1024.3 in NNW 31.5 mph 31.5 mph 65 % 0.0 in 0.0 W/m2 CLR
06:11 12.2 °F 5.8 °F 1024.3 in NW 24.1 mph 24.1 mph 65 % 0.0 in 0.0 W/m2 CLR
06:16 12.2 °F 5.8 °F 1024.3 in WNW 25.9 mph 25.9 mph 65 % 0.0 in 0.0 W/m2 CLR
06:21 12.2 °F 5.8 °F 1024.3 in NW 25.9 mph 25.9 mph 65 % 0.0 in 0.0 W/m2 CLR
06:26 11.7 °F 5.5 °F 1024.3 in NW 22.2 mph 22.2 mph 66 % 0.0 in 0.0 W/m2 CLR
06:31 11.7 °F 5.5 °F 1024.3 in NW 29.6 mph 29.6 mph 66 % 0.0 in 0.0 W/m2 CLR
06:36 11.7 °F 5.5 °F 1024.3 in NW 20.4 mph 20.4 mph 66 % 0.0 in 0.0 W/m2 CLR
06:41 11.7 °F 5.5 °F 1023.9 in NW 20.9 mph 20.9 mph 66 % 0.0 in 0.0 W/m2 CLR
06:46 11.7 °F 5.5 °F 1023.9 in WNW 25.9 mph 25.9 mph 66 % 0.0 in 0.0 W/m2 CLR
06:51 11.7 °F 5.7 °F 1023.9 in WNW 22.2 mph 22.2 mph 67 % 0.0 in 0.0 W/m2 CLR
06:56 11.1 °F 5.2 °F 1023.9 in NW 18.5 mph 18.5 mph 67 % 0.0 in 0.0 W/m2 CLR
07:01 11.7 °F 5.7 °F 1023.9 in NW 27.8 mph 27.8 mph 67 % 0.0 in 0.0 W/m2 CLR
07:06 11.1 °F 5.2 °F 1023.9 in NW 35.2 mph 35.2 mph 67 % 0.0 in 0.0 W/m2 CLR
07:11 11.1 °F 5.2 °F 1023.9 in NNW 31.5 mph 31.5 mph 67 % 0.0 in 0.0 W/m2 CLR
07:16 11.7 °F 5.7 °F 1023.9 in NW 20.4 mph 20.4 mph 67 % 0.0 in 0.0 W/m2 CLR
07:21 11.7 °F 5.7 °F 1023.9 in WNW 24.1 mph 24.1 mph 67 % 0.0 in 0.0 W/m2 CLR
07:26 11.7 °F 5.7 °F 1023.9 in NW 25.9 mph 25.9 mph 67 % 0.0 in 0.0 W/m2 CLR
07:31 11.1 °F 5.2 °F 1023.9 in NW 29.6 mph 29.6 mph 67 % 0.0 in 0.0 W/m2 CLR
07:36 11.1 °F 5.2 °F 1023.9 in WNW 33.3 mph 33.3 mph 67 % 0.0 in 0.0 W/m2 OVC
07:41 11.1 °F 5.2 °F 1023.9 in NW 18.5 mph 18.5 mph 67 % 0.0 in 0.0 W/m2 OVC
07:46 11.1 °F 5.2 °F 1023.9 in West 24.1 mph 24.1 mph 67 % 0.0 in 5.0 W/m2 OVC
07:51 11.1 °F 5.4 °F 1023.9 in West 18.5 mph 18.5 mph 68 % 0.0 in 7.0 W/m2 OVC
07:56 10.6 °F 4.9 °F 1023.9 in WNW 14.8 mph 14.8 mph 68 % 0.0 in 9.0 W/m2 OVC
08:01 10.6 °F 4.9 °F 1023.9 in WNW 18.5 mph 18.5 mph 68 % 0.0 in 11.0 W/m2 OVC
08:06 10.6 °F 4.9 °F 1023.9 in WNW 18.5 mph 18.5 mph 68 % 0.0 in 14.0 W/m2 OVC
08:11 10.6 °F 4.9 °F 1023.9 in NW 14.8 mph 14.8 mph 68 % 0.0 in 16.0 W/m2 OVC
08:16 10.6 °F 4.9 °F 1023.9 in NW 22.2 mph 22.2 mph 68 % 0.0 in 25.0 W/m2 OVC
08:21 10.6 °F 4.7 °F 1023.9 in WNW 25.7 mph 25.7 mph 67 % 0.0 in 35.0 W/m2 OVC
08:26 11.1 °F 5.2 °F 1023.9 in WNW 22.2 mph 22.2 mph 67 % 0.0 in 47.0 W/m2 OVC
08:31 11.1 °F 5.2 °F 1023.9 in WNW 24.1 mph 24.1 mph 67 % 0.0 in 53.0 W/m2 OVC
08:36 11.1 °F 5.0 °F 1023.9 in WNW 25.7 mph 25.7 mph 66 % 0.0 in 70.0 W/m2 OVC
08:42 11.7 °F 5.5 °F 1023.9 in NW 31.5 mph 31.5 mph 66 % 0.0 in 84.0 W/m2 OVC
08:46 11.7 °F 5.5 °F 1023.9 in West 29.0 mph 29.0 mph 66 % 0.0 in 84.0 W/m2 BKN
08:52 11.7 °F 5.5 °F 1023.9 in NW 18.5 mph 18.5 mph 66 % 0.0 in 114.0 W/m2 SCT
08:57 11.7 °F 5.5 °F 1023.9 in NW 24.1 mph 24.1 mph 66 % 0.0 in 130.0 W/m2 CLR
09:02 12.2 °F 5.8 °F 1023.9 in NW 24.1 mph 24.1 mph 65 % 0.0 in 128.0 W/m2 CLR
09:07 12.2 °F 5.8 °F 1023.9 in NW 24.1 mph 24.1 mph 65 % 0.0 in 162.0 W/m2 CLR
09:12 12.2 °F 5.8 °F 1023.9 in WNW 25.9 mph 25.9 mph 65 % 0.0 in 179.0 W/m2 CLR
09:17 12.8 °F 6.1 °F 1023.9 in NW 25.9 mph 25.9 mph 64 % 0.0 in 192.0 W/m2 CLR
09:22 12.8 °F 6.1 °F 1023.6 in NW 25.7 mph 25.7 mph 64 % 0.0 in 200.0 W/m2 CLR
09:27 12.8 °F 5.9 °F 1023.9 in WNW 31.5 mph 31.5 mph 63 % 0.0 in 100.0 W/m2 CLR
09:32 12.8 °F 5.9 °F 1023.9 in WNW 22.2 mph 22.2 mph 63 % 0.0 in 243.0 W/m2 CLR
09:37 13.3 °F 6.4 °F 1023.9 in NW 29.6 mph 29.6 mph 63 % 0.0 in 257.0 W/m2 CLR
09:42 13.3 °F 6.2 °F 1023.9 in NW 22.2 mph 22.2 mph 62 % 0.0 in 272.0 W/m2 CLR
09:47 13.3 °F 6.2 °F 1023.9 in NW 27.8 mph 27.8 mph 62 % 0.0 in 288.0 W/m2 CLR
09:52 13.3 °F 6.2 °F 1023.9 in WNW 27.8 mph 27.8 mph 62 % 0.0 in 302.0 W/m2 CLR
09:57 13.3 °F 6.2 °F 1023.9 in NNW 31.5 mph 31.5 mph 62 % 0.0 in 327.0 W/m2 CLR
10:02 13.9 °F 6.5 °F 1023.9 in NNW 31.5 mph 31.5 mph 61 % 0.0 in 385.0 W/m2 CLR
10:07 13.9 °F 6.5 °F 1023.9 in NW 24.1 mph 24.1 mph 61 % 0.0 in 232.0 W/m2 CLR
10:12 13.9 °F 6.5 °F 1023.9 in NW 27.8 mph 27.8 mph 61 % 0.0 in 346.0 W/m2 CLR
10:17 14.4 °F 7.0 °F 1023.9 in NW 22.2 mph 22.2 mph 61 % 0.0 in 281.0 W/m2 CLR
10:22 14.4 °F 7.0 °F 1023.6 in NW 24.1 mph 24.1 mph 61 % 0.0 in 380.0 W/m2 CLR
10:27 14.4 °F 6.8 °F 1023.6 in North 20.9 mph 20.9 mph 60 % 0.0 in 373.0 W/m2 CLR
10:28 14.4 °F 6.8 °F 1023.6 in NW 45.1 mph 45.1 mph 60 % 0.0 in 336.0 W/m2 CLR
10:33 14.4 °F 6.8 °F 1023.6 in NW 42.6 mph 42.6 mph 60 % 0.0 in 385.0 W/m2 CLR
10:38 14.4 °F 6.8 °F 1023.2 in NW 31.5 mph 31.5 mph 60 % 0.0 in 394.0 W/m2 CLR
10:48 15.0 °F 7.1 °F 1023.2 in NW 29.6 mph 29.6 mph 59 % 0.0 in 429.0 W/m2 CLR
10:53 15.0 °F 7.1 °F 1023.2 in WNW 29.0 mph 29.0 mph 59 % 0.0 in 418.0 W/m2 CLR
10:58 15.0 °F 7.1 °F 1023.2 in NW 29.6 mph 29.6 mph 59 % 0.0 in 425.0 W/m2 CLR
11:03 15.6 °F 7.3 °F 1022.9 in NW 27.8 mph 27.8 mph 58 % 0.0 in 432.0 W/m2 CLR
11:08 15.6 °F 7.1 °F 1022.9 in NNW 35.4 mph 35.4 mph 57 % 0.0 in 454.0 W/m2 CLR
11:13 15.6 °F 7.1 °F 1022.9 in NNW 31.5 mph 31.5 mph 57 % 0.0 in 454.0 W/m2 CLR
11:18 16.1 °F 7.6 °F 1022.9 in North 51.8 mph 51.8 mph 57 % 0.0 in 462.0 W/m2 CLR
11:23 16.1 °F 7.6 °F 1022.6 in North 35.2 mph 35.2 mph 57 % 0.0 in 462.0 W/m2 CLR
11:28 16.1 °F 7.6 °F 1022.6 in North 38.9 mph 38.9 mph 57 % 0.0 in 473.0 W/m2 CLR
11:33 16.1 °F 7.6 °F 1022.6 in NNW 42.6 mph 42.6 mph 57 % 0.0 in 480.0 W/m2 CLR
11:38 16.1 °F 7.3 °F 1022.6 in NNW 53.7 mph 53.7 mph 56 % 0.0 in 513.0 W/m2 CLR
11:43 16.1 °F 7.6 °F 1022.2 in NW 37.0 mph 37.0 mph 57 % 0.0 in 496.0 W/m2 CLR
11:48 16.1 °F 7.3 °F 1022.2 in NNW 41.8 mph 41.8 mph 56 % 0.0 in 494.0 W/m2 CLR
11:53 16.1 °F 7.1 °F 1022.2 in NW 42.6 mph 42.6 mph 55 % 0.0 in 496.0 W/m2 CLR
11:58 16.7 °F 7.6 °F 1022.2 in NNW 46.7 mph 46.7 mph 55 % 0.0 in 499.0 W/m2 CLR
12:03 16.7 °F 7.6 °F 1021.9 in NNW 50.0 mph 50.0 mph 55 % 0.0 in 506.0 W/m2 CLR
12:08 16.7 °F 7.6 °F 1021.6 in NNW 48.1 mph 48.1 mph 55 % 0.0 in 504.0 W/m2 CLR
12:13 16.7 °F 7.6 °F 1021.6 in NNW 44.4 mph 44.4 mph 55 % 0.0 in 510.0 W/m2 CLR
12:18 16.7 °F 7.6 °F 1021.6 in NW 33.3 mph 33.3 mph 55 % 0.0 in 512.0 W/m2 CLR
12:23 17.2 °F 7.8 °F 1021.2 in NNW 48.1 mph 48.1 mph 54 % 0.0 in 513.0 W/m2 CLR
12:28 17.2 °F 7.8 °F 1021.2 in NW 55.5 mph 55.5 mph 54 % 0.0 in 515.0 W/m2 CLR
12:33 17.2 °F 7.8 °F 1021.2 in NNW 44.4 mph 44.4 mph 54 % 0.0 in 517.0 W/m2 CLR
12:38 17.2 °F 7.6 °F 1021.2 in NNW 37.0 mph 37.0 mph 53 % 0.0 in 517.0 W/m2 CLR
12:43 17.8 °F 8.1 °F 1021.2 in NNW 29.6 mph 29.6 mph 53 % 0.0 in 517.0 W/m2 CLR
12:48 17.8 °F 8.1 °F 1021.2 in NNW 42.6 mph 42.6 mph 53 % 0.0 in 524.0 W/m2 CLR
12:53 17.2 °F 7.6 °F 1020.9 in NNW 25.9 mph 25.9 mph 53 % 0.0 in 531.0 W/m2 CLR
12:58 17.8 °F 8.1 °F 1020.9 in NNW 35.2 mph 35.2 mph 53 % 0.0 in 526.0 W/m2 CLR
13:03 17.8 °F 7.8 °F 1020.5 in NNW 46.3 mph 46.3 mph 52 % 0.0 in 515.0 W/m2 CLR
13:08 18.3 °F 8.3 °F 1020.5 in North 30.6 mph 30.6 mph 52 % 0.0 in 512.0 W/m2 CLR
13:13 18.3 °F 8.0 °F 1020.5 in NNW 41.8 mph 41.8 mph 51 % 0.0 in 510.0 W/m2 CLR
13:18 18.3 °F 8.0 °F 1020.5 in North 38.9 mph 38.9 mph 51 % 0.0 in 508.0 W/m2 CLR
13:23 18.3 °F 8.0 °F 1020.5 in North 48.1 mph 48.1 mph 51 % 0.0 in 503.0 W/m2 CLR
13:24 18.3 °F 8.0 °F 1020.5 in NNW 48.1 mph 48.1 mph 51 % 0.0 in 503.0 W/m2 CLR
13:29 18.3 °F 8.0 °F 1020.2 in NW 40.7 mph 40.7 mph 51 % 0.0 in 504.0 W/m2 CLR
13:34 18.3 °F 8.0 °F 1020.2 in NNW 42.6 mph 42.6 mph 51 % 0.0 in 499.0 W/m2 CLR
13:39 18.3 °F 8.0 °F 1020.2 in NNW 29.6 mph 29.6 mph 51 % 0.0 in 492.0 W/m2 CLR
13:44 18.3 °F 7.7 °F 1020.2 in NNW 42.6 mph 42.6 mph 50 % 0.0 in 489.0 W/m2 CLR
13:49 18.3 °F 8.0 °F 1019.9 in NNW 31.5 mph 31.5 mph 51 % 0.0 in 482.0 W/m2 CLR
13:54 18.9 °F 8.2 °F 1019.9 in NNW 40.7 mph 40.7 mph 50 % 0.0 in 476.0 W/m2 CLR
13:59 18.3 °F 7.7 °F 1019.9 in NW 31.5 mph 31.5 mph 50 % 0.0 in 471.0 W/m2 CLR
14:04 18.9 °F 8.2 °F 1019.5 in North 42.6 mph 42.6 mph 50 % 0.0 in 466.0 W/m2 CLR
14:09 18.3 °F 7.7 °F 1019.5 in NNW 40.7 mph 40.7 mph 50 % 0.0 in 461.0 W/m2 CLR
14:14 18.3 °F 7.7 °F 1019.5 in NNW 46.3 mph 46.3 mph 50 % 0.0 in 452.0 W/m2 CLR
14:19 18.3 °F 7.7 °F 1019.5 in NW 35.2 mph 35.2 mph 50 % 0.0 in 446.0 W/m2 CLR
14:24 18.3 °F 7.7 °F 1019.5 in NNW 43.4 mph 43.4 mph 50 % 0.0 in 439.0 W/m2 CLR
14:29 18.3 °F 7.7 °F 1019.2 in North 33.3 mph 33.3 mph 50 % 0.0 in 429.0 W/m2 CLR
14:34 18.3 °F 7.7 °F 1019.2 in NNW 35.2 mph 35.2 mph 50 % 0.0 in 422.0 W/m2 CLR
14:39 18.9 °F 7.9 °F 1019.2 in North 40.7 mph 40.7 mph 49 % 0.0 in 415.0 W/m2 CLR
14:44 18.3 °F 7.4 °F 1019.2 in NW 42.6 mph 42.6 mph 49 % 0.0 in 403.0 W/m2 CLR
14:49 18.9 °F 7.9 °F 1019.2 in North 37.0 mph 37.0 mph 49 % 0.0 in 394.0 W/m2 CLR
14:54 18.9 °F 7.9 °F 1019.2 in North 42.6 mph 42.6 mph 49 % 0.0 in 387.0 W/m2 CLR
14:59 18.3 °F 7.7 °F 1019.2 in NNE 29.6 mph 29.6 mph 50 % 0.0 in 378.0 W/m2 CLR
15:04 18.3 °F 7.7 °F 1019.2 in North 50.0 mph 50.0 mph 50 % 0.0 in 369.0 W/m2 CLR
15:09 18.3 °F 7.7 °F 1019.2 in NNW 48.1 mph 48.1 mph 50 % 0.0 in 357.0 W/m2 CLR
15:14 18.3 °F 7.7 °F 1019.2 in NNW 53.7 mph 53.7 mph 50 % 0.0 in 345.0 W/m2 CLR
15:19 18.3 °F 7.7 °F 1019.2 in NNW 44.4 mph 44.4 mph 50 % 0.0 in 334.0 W/m2 CLR
15:24 18.3 °F 8.0 °F 1019.2 in NNW 35.2 mph 35.2 mph 51 % 0.0 in 323.0 W/m2 CLR
15:29 18.3 °F 8.0 °F 1019.5 in NNW 45.1 mph 45.1 mph 51 % 0.0 in 311.0 W/m2 CLR
15:34 18.3 °F 8.0 °F 1019.2 in NNW 46.7 mph 46.7 mph 51 % 0.0 in 302.0 W/m2 CLR
15:39 18.3 °F 8.3 °F 1019.2 in NNW 35.2 mph 35.2 mph 52 % 0.0 in 288.0 W/m2 CLR
15:44 17.8 °F 7.8 °F 1019.2 in North 48.3 mph 48.3 mph 52 % 0.0 in 276.0 W/m2 CLR
15:49 17.8 °F 8.1 °F 1019.2 in NNW 33.8 mph 33.8 mph 53 % 0.0 in 260.0 W/m2 CLR
15:54 17.8 °F 8.1 °F 1019.5 in NW 31.5 mph 31.5 mph 53 % 0.0 in 250.0 W/m2 CLR
15:59 17.2 °F 7.6 °F 1019.2 in NNW 46.3 mph 46.3 mph 53 % 0.0 in 236.0 W/m2 CLR
16:04 17.2 °F 7.8 °F 1019.2 in NNW 31.5 mph 31.5 mph 54 % 0.0 in 234.0 W/m2 CLR
16:09 17.2 °F 7.6 °F 1019.2 in NW 48.1 mph 48.1 mph 53 % 0.0 in 207.0 W/m2 CLR
16:14 17.2 °F 7.8 °F 1019.2 in NW 24.1 mph 24.1 mph 54 % 0.0 in 186.0 W/m2 CLR
16:19 16.7 °F 7.3 °F 1019.2 in North 42.6 mph 42.6 mph 54 % 0.0 in 169.0 W/m2 CLR
16:24 16.7 °F 7.3 °F 1019.2 in NNW 35.4 mph 35.4 mph 54 % 0.0 in 155.0 W/m2 CLR
16:29 16.7 °F 7.3 °F 1018.8 in North 40.7 mph 40.7 mph 54 % 0.0 in 141.0 W/m2 CLR
16:34 16.7 °F 7.3 °F 1018.8 in NNW 38.9 mph 38.9 mph 54 % 0.0 in 123.0 W/m2 CLR
16:39 16.1 °F 7.1 °F 1018.8 in NNW 42.6 mph 42.6 mph 55 % 0.0 in 109.0 W/m2 CLR
16:44 16.1 °F 7.1 °F 1018.8 in NW 33.8 mph 33.8 mph 55 % 0.0 in 95.0 W/m2 CLR
16:49 16.1 °F 7.1 °F 1018.8 in North 42.6 mph 42.6 mph 55 % 0.0 in 76.0 W/m2 FEW
16:54 16.1 °F 7.1 °F 1018.5 in North 53.1 mph 53.1 mph 55 % 0.0 in 53.0 W/m2 SCT
16:59 16.1 °F 7.1 °F 1018.8 in NNW 53.7 mph 53.7 mph 55 % 0.0 in 51.0 W/m2 SCT
17:04 16.1 °F 7.1 °F 1018.5 in NNW 53.7 mph 53.7 mph 55 % 0.0 in 42.0 W/m2 BKN
17:09 16.1 °F 7.3 °F 1018.8 in NNW 35.4 mph 35.4 mph 56 % 0.0 in 32.0 W/m2 BKN
17:14 16.1 °F 7.3 °F 1018.5 in North 42.6 mph 42.6 mph 56 % 0.0 in 21.0 W/m2 BKN
17:19 15.6 °F 7.1 °F 1018.5 in North 35.2 mph 35.2 mph 57 % 0.0 in 16.0 W/m2 BKN
17:25 15.6 °F 7.3 °F 1018.5 in NNW 44.4 mph 44.4 mph 58 % 0.0 in 12.0 W/m2 BKN
17:30 15.6 °F 7.3 °F 1018.5 in NNW 35.2 mph 35.2 mph 58 % 0.0 in 11.0 W/m2 BKN
17:35 15.0 °F 6.8 °F 1018.5 in NNW 32.2 mph 32.2 mph 58 % 0.0 in 9.0 W/m2 BKN
17:40 15.0 °F 7.1 °F 1018.2 in NNW 38.9 mph 38.9 mph 59 % 0.0 in 7.0 W/m2 BKN
17:45 15.0 °F 7.1 °F 1018.5 in North 42.6 mph 42.6 mph 59 % 0.0 in 5.0 W/m2 OVC
17:50 15.0 °F 7.1 °F 1018.2 in North 32.2 mph 32.2 mph 59 % 0.0 in 0.0 W/m2 OVC
17:55 15.0 °F 7.3 °F 1018.2 in NNW 46.3 mph 46.3 mph 60 % 0.0 in 0.0 W/m2 CLR
18:00 15.0 °F 7.3 °F 1018.2 in NW 31.5 mph 31.5 mph 60 % 0.0 in 0.0 W/m2 CLR
18:05 15.0 °F 7.3 °F 1018.2 in NNW 38.9 mph 38.9 mph 60 % 0.0 in 0.0 W/m2 CLR
18:10 15.0 °F 7.3 °F 1018.5 in North 50.0 mph 50.0 mph 60 % 0.0 in 0.0 W/m2 CLR
18:15 15.0 °F 7.3 °F 1018.5 in NNW 61.1 mph 61.1 mph 60 % 0.0 in 0.0 W/m2 CLR
18:20 15.0 °F 7.3 °F 1018.5 in NNW 44.4 mph 44.4 mph 60 % 0.0 in 0.0 W/m2 CLR
18:25 15.0 °F 7.6 °F 1018.8 in NNW 40.7 mph 40.7 mph 61 % 0.0 in 0.0 W/m2 CLR
18:30 14.4 °F 7.0 °F 1018.5 in NNW 40.7 mph 40.7 mph 61 % 0.0 in 0.0 W/m2 CLR
18:35 14.4 °F 7.0 °F 1018.5 in NW 40.7 mph 40.7 mph 61 % 0.0 in 0.0 W/m2 CLR
18:40 14.4 °F 7.0 °F 1018.8 in North 32.2 mph 32.2 mph 61 % 0.0 in 0.0 W/m2 CLR
18:45 14.4 °F 7.2 °F 1018.5 in NW 37.0 mph 37.0 mph 62 % 0.0 in 0.0 W/m2 CLR
18:50 14.4 °F 7.2 °F 1018.5 in NW 40.7 mph 40.7 mph 62 % 0.0 in 0.0 W/m2 CLR
18:55 14.4 °F 7.2 °F 1018.5 in NNW 45.1 mph 45.1 mph 62 % 0.0 in 0.0 W/m2 CLR
19:00 14.4 °F 7.2 °F 1018.2 in NNW 35.4 mph 35.4 mph 62 % 0.0 in 0.0 W/m2 CLR
19:05 14.4 °F 7.2 °F 1018.5 in NW 40.7 mph 40.7 mph 62 % 0.0 in 0.0 W/m2 CLR
19:10 14.4 °F 7.2 °F 1018.5 in NNW 38.9 mph 38.9 mph 62 % 0.0 in 0.0 W/m2 CLR
19:15 14.4 °F 7.2 °F 1018.5 in NNW 42.6 mph 42.6 mph 62 % 0.0 in 0.0 W/m2 CLR
19:20 14.4 °F 7.2 °F 1018.2 in NNW 37.0 mph 37.0 mph 62 % 0.0 in 0.0 W/m2 CLR
19:25 14.4 °F 7.0 °F 1018.5 in NW 40.7 mph 40.7 mph 61 % 0.0 in 0.0 W/m2 CLR
19:30 14.4 °F 7.0 °F 1018.5 in NNW 31.5 mph 31.5 mph 61 % 0.0 in 0.0 W/m2 CLR
19:35 14.4 °F 7.2 °F 1018.5 in NW 35.2 mph 35.2 mph 62 % 0.0 in 0.0 W/m2 CLR
19:40 14.4 °F 7.2 °F 1018.5 in NW 24.1 mph 24.1 mph 62 % 0.0 in 0.0 W/m2 CLR
19:45 13.9 °F 6.9 °F 1018.5 in NW 35.4 mph 35.4 mph 63 % 0.0 in 0.0 W/m2 CLR
19:50 13.9 °F 6.7 °F 1018.5 in WNW 31.5 mph 31.5 mph 62 % 0.0 in 0.0 W/m2 CLR
19:56 13.9 °F 6.9 °F 1018.2 in NW 40.7 mph 40.7 mph 63 % 0.0 in 0.0 W/m2 CLR
20:01 13.9 °F 6.9 °F 1018.2 in NW 38.9 mph 38.9 mph 63 % 0.0 in 0.0 W/m2 CLR
20:06 13.9 °F 6.9 °F 1018.2 in NNW 31.5 mph 31.5 mph 63 % 0.0 in 0.0 W/m2 CLR
20:11 13.9 °F 6.9 °F 1018.2 in NW 31.5 mph 31.5 mph 63 % 0.0 in 0.0 W/m2 CLR
20:16 13.9 °F 7.2 °F 1018.2 in NNW 31.5 mph 31.5 mph 64 % 0.0 in 0.0 W/m2 CLR
20:21 13.9 °F 7.2 °F 1017.8 in NNW 37.0 mph 37.0 mph 64 % 0.0 in 0.0 W/m2 CLR
20:26 13.9 °F 7.2 °F 1018.2 in NNW 38.9 mph 38.9 mph 64 % 0.0 in 0.0 W/m2 CLR
20:31 13.9 °F 7.2 °F 1018.2 in NNW 48.1 mph 48.1 mph 64 % 0.0 in 0.0 W/m2 CLR
20:36 13.9 °F 7.2 °F 1018.2 in NNW 31.5 mph 31.5 mph 64 % 0.0 in 0.0 W/m2 CLR
20:41 13.9 °F 7.2 °F 1017.8 in WNW 31.5 mph 31.5 mph 64 % 0.0 in 0.0 W/m2 CLR
20:46 13.9 °F 7.2 °F 1017.5 in WNW 31.5 mph 31.5 mph 64 % 0.0 in 0.0 W/m2 CLR
20:51 13.9 °F 7.2 °F 1017.5 in NW 30.6 mph 30.6 mph 64 % 0.0 in 0.0 W/m2 CLR
20:56 13.9 °F 7.2 °F 1017.8 in NW 33.3 mph 33.3 mph 64 % 0.0 in 0.0 W/m2 CLR
21:01 13.9 °F 7.4 °F 1017.8 in WNW 31.5 mph 31.5 mph 65 % 0.0 in 0.0 W/m2 CLR
21:06 13.9 °F 7.4 °F 1017.5 in NW 33.3 mph 33.3 mph 65 % 0.0 in 0.0 W/m2 CLR
21:11 13.9 °F 7.4 °F 1017.5 in WNW 27.8 mph 27.8 mph 65 % 0.0 in 0.0 W/m2 CLR
21:16 13.9 °F 7.4 °F 1017.8 in NW 38.9 mph 38.9 mph 65 % 0.0 in 0.0 W/m2 CLR
21:21 13.9 °F 7.4 °F 1017.5 in NNW 31.5 mph 31.5 mph 65 % 0.0 in 0.0 W/m2 CLR
21:26 13.9 °F 7.4 °F 1017.8 in WNW 37.0 mph 37.0 mph 65 % 0.0 in 0.0 W/m2 CLR
21:31 13.9 °F 7.6 °F 1017.8 in NW 38.9 mph 38.9 mph 66 % 0.0 in 0.0 W/m2 CLR
21:36 13.9 °F 7.4 °F 1017.8 in NNW 37.0 mph 37.0 mph 65 % 0.0 in 0.0 W/m2 CLR
21:41 13.9 °F 7.6 °F 1017.8 in NW 31.5 mph 31.5 mph 66 % 0.0 in 0.0 W/m2 CLR
21:46 13.9 °F 7.8 °F 1017.8 in NNW 55.5 mph 55.5 mph 67 % 0.0 in 0.0 W/m2 CLR
21:51 13.9 °F 7.8 °F 1017.5 in NW 31.5 mph 31.5 mph 67 % 0.0 in 0.0 W/m2 CLR
21:56 13.9 °F 7.8 °F 1017.5 in NNW 68.5 mph 68.5 mph 67 % 0.0 in 0.0 W/m2 CLR
22:01 13.9 °F 7.8 °F 1017.5 in NW 42.6 mph 42.6 mph 67 % 0.0 in 0.0 W/m2 CLR
22:06 13.9 °F 7.8 °F 1017.2 in NNW 42.6 mph 42.6 mph 67 % 0.0 in 0.0 W/m2 CLR
22:11 13.9 °F 8.1 °F 1017.5 in NW 51.8 mph 51.8 mph 68 % 0.0 in 0.0 W/m2 CLR
22:16 13.9 °F 8.1 °F 1017.2 in NNW 50.0 mph 50.0 mph 68 % 0.0 in 0.0 W/m2 CLR
22:21 14.4 °F 8.6 °F 1017.5 in NW 51.8 mph 51.8 mph 68 % 0.0 in 0.0 W/m2 CLR
22:23 14.4 °F 8.6 °F 1017.5 in NNW 66.6 mph 66.6 mph 68 % 0.0 in 0.0 W/m2 CLR
22:26 14.4 °F 8.6 °F 1017.5 in NNW 66.6 mph 66.6 mph 68 % 0.0 in 0.0 W/m2 CLR
22:31 13.9 °F 8.3 °F 1017.5 in NW 51.8 mph 51.8 mph 69 % 0.0 in 0.0 W/m2 CLR
22:36 13.9 °F 8.3 °F 1017.5 in NNW 55.5 mph 55.5 mph 69 % 0.0 in 0.0 W/m2 CLR
22:41 13.9 °F 8.3 °F 1017.5 in NNW 48.1 mph 48.1 mph 69 % 0.0 in 0.0 W/m2
22:46 13.9 °F 8.5 °F 1017.5 in NNW 41.8 mph 41.8 mph 70 % 0.0 in 0.0 W/m2 CLR
22:51 13.9 °F 8.5 °F 1017.5 in NW 35.2 mph 35.2 mph 70 % 0.0 in 0.0 W/m2 CLR
22:56 13.9 °F 8.5 °F 1017.2 in NW 46.3 mph 46.3 mph 70 % 0.0 in 0.0 W/m2 CLR
23:01 13.9 °F 8.5 °F 1017.5 in NNW 44.4 mph 44.4 mph 70 % 0.0 in 0.0 W/m2 CLR
23:06 13.9 °F 8.5 °F 1017.5 in NNW 42.6 mph 42.6 mph 70 % 0.0 in 0.0 W/m2 CLR
23:11 13.9 °F 8.5 °F 1017.5 in NW 42.6 mph 42.6 mph 70 % 0.0 in 0.0 W/m2 CLR
23:16 13.9 °F 8.5 °F 1017.2 in WNW 38.9 mph 38.9 mph 70 % 0.0 in 0.0 W/m2 CLR
23:21 13.9 °F 8.5 °F 1016.8 in NNW 45.1 mph 45.1 mph 70 % 0.0 in 0.0 W/m2 CLR
23:26 13.9 °F 8.5 °F 1016.8 in NW 42.6 mph 42.6 mph 70 % 0.0 in 0.0 W/m2 CLR
23:31 13.9 °F 8.5 °F 1016.8 in North 40.7 mph 40.7 mph 70 % 0.0 in 0.0 W/m2 CLR
23:36 13.9 °F 8.5 °F 1016.8 in NNW 44.4 mph 44.4 mph 70 % 0.0 in 0.0 W/m2 CLR
23:41 13.9 °F 8.3 °F 1016.8 in NNW 55.5 mph 55.5 mph 69 % 0.0 in 0.0 W/m2 CLR
23:46 13.9 °F 8.3 °F 1016.8 in NW 42.6 mph 42.6 mph 69 % 0.0 in 0.0 W/m2 CLR
23:51 13.9 °F 8.3 °F 1016.8 in NNW 48.1 mph 48.1 mph 69 % 0.0 in 0.0 W/m2
23:56 13.9 °F 8.3 °F 1016.8 in NNW 46.3 mph 46.3 mph 69 % 0.0 in 0.0 W/m2 CLR
Lo Temps de Massalio
Compliments of Weather Underground - 1.25 mb